sensor_id;sensor_type;location;lat;lon;timestamp;temperature;humidity
30049;DHT22;16879;50.852;15.602;2024-02-26T00:04:06;2.50;99.90
30049;DHT22;16879;50.852;15.602;2024-02-26T00:06:32;2.60;99.90
30049;DHT22;16879;50.852;15.602;2024-02-26T00:08:58;2.40;99.90
30049;DHT22;16879;50.852;15.602;2024-02-26T00:11:24;2.60;99.90
30049;DHT22;16879;50.852;15.602;2024-02-26T00:23:34;2.30;99.90
30049;DHT22;16879;50.852;15.602;2024-02-26T00:28:26;2.00;99.90
30049;DHT22;16879;50.852;15.602;2024-02-26T00:35:48;2.10;99.90
30049;DHT22;16879;50.852;15.602;2024-02-26T00:38:14;1.40;99.90
30049;DHT22;16879;50.852;15.602;2024-02-26T00:40:40;2.10;99.90
30049;DHT22;16879;50.852;15.602;2024-02-26T00:45:32;1.60;99.90
30049;DHT22;16879;50.852;15.602;2024-02-26T00:47:59;2.20;99.90
30049;DHT22;16879;50.852;15.602;2024-02-26T00:50:30;3.00;88.00
30049;DHT22;16879;50.852;15.602;2024-02-26T00:52:56;2.10;99.90
30049;DHT22;16879;50.852;15.602;2024-02-26T01:02:40;2.00;99.90
30049;DHT22;16879;50.852;15.602;2024-02-26T01:07:35;2.20;99.90
30049;DHT22;16879;50.852;15.602;2024-02-26T01:14:58;2.10;99.90
30049;DHT22;16879;50.852;15.602;2024-02-26T01:22:16;2.00;99.90
30049;DHT22;16879;50.852;15.602;2024-02-26T01:27:08;2.10;99.90
30049;DHT22;16879;50.852;15.602;2024-02-26T01:29:34;1.50;99.90
30049;DHT22;16879;50.852;15.602;2024-02-26T01:32:00;1.30;99.90
30049;DHT22;16879;50.852;15.602;2024-02-26T01:34:26;2.70;99.90
30049;DHT22;16879;50.852;15.602;2024-02-26T01:36:52;1.00;99.90
30049;DHT22;16879;50.852;15.602;2024-02-26T01:41:44;1.20;99.90
30049;DHT22;16879;50.852;15.602;2024-02-26T01:44:12;1.40;52.00
30049;DHT22;16879;50.852;15.602;2024-02-26T01:46:39;1.20;99.90
30049;DHT22;16879;50.852;15.602;2024-02-26T01:51:32;1.30;53.00
30049;DHT22;16879;50.852;15.602;2024-02-26T01:58:56;1.30;64.30
30049;DHT22;16879;50.852;15.602;2024-02-26T02:03:59;1.30;80.10
30049;DHT22;16879;50.852;15.602;2024-02-26T02:08:54;1.30;74.30
30049;DHT22;16879;50.852;15.602;2024-02-26T02:11:20;1.10;99.90
30049;DHT22;16879;50.852;15.602;2024-02-26T02:13:46;1.00;99.90
30049;DHT22;16879;50.852;15.602;2024-02-26T02:16:12;1.20;99.90
30049;DHT22;16879;50.852;15.602;2024-02-26T02:21:05;1.00;99.90
30049;DHT22;16879;50.852;15.602;2024-02-26T02:28:25;1.10;70.60
30049;DHT22;16879;50.852;15.602;2024-02-26T02:40:38;1.00;99.90
30049;DHT22;16879;50.852;15.602;2024-02-26T02:43:04;0.50;99.90
30049;DHT22;16879;50.852;15.602;2024-02-26T02:45:30;1.00;99.90
30049;DHT22;16879;50.852;15.602;2024-02-26T02:50:22;0.50;99.90
30049;DHT22;16879;50.852;15.602;2024-02-26T03:00:11;0.90;76.60
30049;DHT22;16879;50.852;15.602;2024-02-26T03:17:16;1.00;99.90
30049;DHT22;16879;50.852;15.602;2024-02-26T03:22:12;0.70;49.60
30049;DHT22;16879;50.852;15.602;2024-02-26T03:24:38;1.00;99.90
30049;DHT22;16879;50.852;15.602;2024-02-26T03:27:04;1.10;99.90
30049;DHT22;16879;50.852;15.602;2024-02-26T03:29:35;0.30;99.90
30049;DHT22;16879;50.852;15.602;2024-02-26T03:32:01;0.30;99.90
30049;DHT22;16879;50.852;15.602;2024-02-26T03:34:28;0.70;62.00
30049;DHT22;16879;50.852;15.602;2024-02-26T03:41:48;-0.50;83.60
30049;DHT22;16879;50.852;15.602;2024-02-26T03:46:40;0.80;99.90
30049;DHT22;16879;50.852;15.602;2024-02-26T03:51:34;0.20;99.90
30049;DHT22;16879;50.852;15.602;2024-02-26T03:54:00;0.80;99.90
30049;DHT22;16879;50.852;15.602;2024-02-26T03:56:26;0.70;99.90
30049;DHT22;16879;50.852;15.602;2024-02-26T03:58:53;1.10;1.00
30049;DHT22;16879;50.852;15.602;2024-02-26T04:01:19;1.10;1.00
30049;DHT22;16879;50.852;15.602;2024-02-26T04:08:40;0.80;67.50
30049;DHT22;16879;50.852;15.602;2024-02-26T04:11:06;0.40;99.90
30049;DHT22;16879;50.852;15.602;2024-02-26T04:25:48;0.30;99.90
30049;DHT22;16879;50.852;15.602;2024-02-26T04:28:14;0.30;99.90
30049;DHT22;16879;50.852;15.602;2024-02-26T04:45:19;-0.40;1.00
30049;DHT22;16879;50.852;15.602;2024-02-26T04:50:11;0.00;1.00
30049;DHT22;16879;50.852;15.602;2024-02-26T04:52:37;-0.30;1.00
30049;DHT22;16879;50.852;15.602;2024-02-26T04:55:03;-0.30;1.00
30049;DHT22;16879;50.852;15.602;2024-02-26T05:12:11;0.90;1.00
30049;DHT22;16879;50.852;15.602;2024-02-26T05:14:37;0.10;1.00
30049;DHT22;16879;50.852;15.602;2024-02-26T05:17:02;-0.10;1.00
30049;DHT22;16879;50.852;15.602;2024-02-26T05:19:28;-0.10;1.00
30049;DHT22;16879;50.852;15.602;2024-02-26T05:21:54;-0.30;1.00
30049;DHT22;16879;50.852;15.602;2024-02-26T05:26:48;-0.40;94.80
30049;DHT22;16879;50.852;15.602;2024-02-26T05:31:42;-0.50;79.10
30049;DHT22;16879;50.852;15.602;2024-02-26T05:34:08;-0.60;99.90
30049;DHT22;16879;50.852;15.602;2024-02-26T05:39:00;0.20;97.70
30049;DHT22;16879;50.852;15.602;2024-02-26T05:41:26;-0.50;1.00
30049;DHT22;16879;50.852;15.602;2024-02-26T05:43:54;-0.20;99.90
30049;DHT22;16879;50.852;15.602;2024-02-26T05:58:36;-0.20;1.00
30049;DHT22;16879;50.852;15.602;2024-02-26T06:05:54;0.00;1.00
30049;DHT22;16879;50.852;15.602;2024-02-26T06:08:20;0.60;1.00
30049;DHT22;16879;50.852;15.602;2024-02-26T06:10:46;0.60;99.90
30049;DHT22;16879;50.852;15.602;2024-02-26T06:13:12;0.20;1.00
30049;DHT22;16879;50.852;15.602;2024-02-26T06:25:23;0.60;1.00
30049;DHT22;16879;50.852;15.602;2024-02-26T06:30:15;1.10;1.00
30049;DHT22;16879;50.852;15.602;2024-02-26T06:32:41;1.20;1.00
30049;DHT22;16879;50.852;15.602;2024-02-26T06:35:07;2.10;1.00
30049;DHT22;16879;50.852;15.602;2024-02-26T06:37:35;2.30;99.90
30049;DHT22;16879;50.852;15.602;2024-02-26T06:44:58;3.90;99.90
30049;DHT22;16879;50.852;15.602;2024-02-26T06:47:24;4.10;99.90
30049;DHT22;16879;50.852;15.602;2024-02-26T06:49:51;4.50;99.90
30049;DHT22;16879;50.852;15.602;2024-02-26T06:52:17;4.90;74.00
30049;DHT22;16879;50.852;15.602;2024-02-26T06:54:43;5.20;99.90
30049;DHT22;16879;50.852;15.602;2024-02-26T06:57:08;5.20;99.90
30049;DHT22;16879;50.852;15.602;2024-02-26T06:59:34;5.80;99.90
30049;DHT22;16879;50.852;15.602;2024-02-26T07:02:00;6.10;99.90
30049;DHT22;16879;50.852;15.602;2024-02-26T07:04:26;6.30;23.20
30049;DHT22;16879;50.852;15.602;2024-02-26T07:11:44;6.60;77.30
30049;DHT22;16879;50.852;15.602;2024-02-26T07:14:11;6.30;63.00
30049;DHT22;16879;50.852;15.602;2024-02-26T07:16:37;6.40;99.90
30049;DHT22;16879;50.852;15.602;2024-02-26T07:19:03;6.40;99.90
30049;DHT22;16879;50.852;15.602;2024-02-26T07:21:29;6.50;99.90
30049;DHT22;16879;50.852;15.602;2024-02-26T07:23:56;7.30;99.90
30049;DHT22;16879;50.852;15.602;2024-02-26T07:26:22;7.40;35.80
30049;DHT22;16879;50.852;15.602;2024-02-26T07:31:17;7.30;2.90
30049;DHT22;16879;50.852;15.602;2024-02-26T07:33:43;7.60;99.90
30049;DHT22;16879;50.852;15.602;2024-02-26T07:38:35;7.70;99.90
30049;DHT22;16879;50.852;15.602;2024-02-26T07:45:54;8.30;1.00
30049;DHT22;16879;50.852;15.602;2024-02-26T07:50:46;8.00;28.20
30049;DHT22;16879;50.852;15.602;2024-02-26T07:58:04;7.40;40.40
30049;DHT22;16879;50.852;15.602;2024-02-26T08:05:22;8.40;69.90
30049;DHT22;16879;50.852;15.602;2024-02-26T08:10:14;8.50;1.00
30049;DHT22;16879;50.852;15.602;2024-02-26T08:17:32;8.90;99.90
30049;DHT22;16879;50.852;15.602;2024-02-26T08:19:59;9.10;99.90
30049;DHT22;16879;50.852;15.602;2024-02-26T08:22:25;9.20;99.90
30049;DHT22;16879;50.852;15.602;2024-02-26T08:32:09;9.20;2.40
30049;DHT22;16879;50.852;15.602;2024-02-26T08:56:37;10.30;62.20
30049;DHT22;16879;50.852;15.602;2024-02-26T09:01:31;11.00;1.00
30049;DHT22;16879;50.852;15.602;2024-02-26T09:06:23;11.40;9.10
30049;DHT22;16879;50.852;15.602;2024-02-26T09:08:49;11.20;1.00
30049;DHT22;16879;50.852;15.602;2024-02-26T09:13:41;10.50;90.20
30049;DHT22;16879;50.852;15.602;2024-02-26T09:30:44;11.00;1.00
30049;DHT22;16879;50.852;15.602;2024-02-26T09:38:03;11.50;84.10
30049;DHT22;16879;50.852;15.602;2024-02-26T09:40:29;11.50;95.50
30049;DHT22;16879;50.852;15.602;2024-02-26T09:47:55;11.90;1.00
30049;DHT22;16879;50.852;15.602;2024-02-26T09:50:21;11.80;2.60
30049;DHT22;16879;50.852;15.602;2024-02-26T09:55:18;11.90;1.00
30049;DHT22;16879;50.852;15.602;2024-02-26T09:57:46;12.10;1.00
30049;DHT22;16879;50.852;15.602;2024-02-26T10:05:16;12.00;1.00
30049;DHT22;16879;50.852;15.602;2024-02-26T10:10:10;11.60;1.00
30049;DHT22;16879;50.852;15.602;2024-02-26T10:15:03;12.40;1.00
30049;DHT22;16879;50.852;15.602;2024-02-26T10:25:03;12.20;1.00
30049;DHT22;16879;50.852;15.602;2024-02-26T10:27:29;12.60;65.30
30049;DHT22;16879;50.852;15.602;2024-02-26T10:32:24;12.90;1.00
30049;DHT22;16879;50.852;15.602;2024-02-26T10:34:55;12.90;1.00
30049;DHT22;16879;50.852;15.602;2024-02-26T10:39:48;12.90;1.00
30049;DHT22;16879;50.852;15.602;2024-02-26T10:42:14;12.70;1.00
30049;DHT22;16879;50.852;15.602;2024-02-26T10:52:03;12.30;1.00
30049;DHT22;16879;50.852;15.602;2024-02-26T10:56:56;12.80;55.90
30049;DHT22;16879;50.852;15.602;2024-02-26T11:11:41;12.20;1.00
30049;DHT22;16879;50.852;15.602;2024-02-26T11:19:03;12.30;1.00
30049;DHT22;16879;50.852;15.602;2024-02-26T11:21:31;11.90;56.90
30049;DHT22;16879;50.852;15.602;2024-02-26T11:38:46;12.10;1.00
30049;DHT22;16879;50.852;15.602;2024-02-26T11:49:29;11.90;1.00
30049;DHT22;16879;50.852;15.602;2024-02-26T11:54:52;11.90;1.00
30049;DHT22;16879;50.852;15.602;2024-02-26T12:07:48;11.90;1.00
30049;DHT22;16879;50.852;15.602;2024-02-26T12:10:38;11.90;1.00
30049;DHT22;16879;50.852;15.602;2024-02-26T12:13:16;11.90;1.00
30049;DHT22;16879;50.852;15.602;2024-02-26T12:18:18;12.10;1.00
30049;DHT22;16879;50.852;15.602;2024-02-26T12:23:16;12.10;1.00
30049;DHT22;16879;50.852;15.602;2024-02-26T12:30:36;12.00;1.00
30049;DHT22;16879;50.852;15.602;2024-02-26T12:47:45;11.90;1.00
30049;DHT22;16879;50.852;15.602;2024-02-26T12:52:43;11.80;1.00
30049;DHT22;16879;50.852;15.602;2024-02-26T12:57:41;11.70;1.00
30049;DHT22;16879;50.852;15.602;2024-02-26T13:09:56;11.60;1.00
30049;DHT22;16879;50.852;15.602;2024-02-26T13:14:59;11.50;1.00
30049;DHT22;16879;50.852;15.602;2024-02-26T13:17:26;11.60;57.60
30049;DHT22;16879;50.852;15.602;2024-02-26T13:32:40;11.50;1.00
30049;DHT22;16879;50.852;15.602;2024-02-26T13:35:07;11.50;1.00
30049;DHT22;16879;50.852;15.602;2024-02-26T13:52:19;11.50;1.00
30049;DHT22;16879;50.852;15.602;2024-02-26T14:07:01;11.50;1.00
30049;DHT22;16879;50.852;15.602;2024-02-26T14:11:52;10.90;1.00
30049;DHT22;16879;50.852;15.602;2024-02-26T14:21:37;10.50;88.80
30049;DHT22;16879;50.852;15.602;2024-02-26T14:24:05;10.70;1.00
30049;DHT22;16879;50.852;15.602;2024-02-26T14:33:52;10.20;1.00
30049;DHT22;16879;50.852;15.602;2024-02-26T14:36:20;10.60;1.00
30049;DHT22;16879;50.852;15.602;2024-02-26T14:41:12;10.50;1.00
30049;DHT22;16879;50.852;15.602;2024-02-26T14:48:31;8.50;1.00
30049;DHT22;16879;50.852;15.602;2024-02-26T14:58:19;10.30;1.00
30049;DHT22;16879;50.852;15.602;2024-02-26T15:03:11;10.20;70.80
30049;DHT22;16879;50.852;15.602;2024-02-26T15:08:05;10.80;1.00
30049;DHT22;16879;50.852;15.602;2024-02-26T15:10:35;10.20;87.70
30049;DHT22;16879;50.852;15.602;2024-02-26T15:15:27;10.40;97.20
30049;DHT22;16879;50.852;15.602;2024-02-26T15:17:53;10.10;99.90
30049;DHT22;16879;50.852;15.602;2024-02-26T15:20:19;10.00;95.90
30049;DHT22;16879;50.852;15.602;2024-02-26T15:32:30;10.40;1.00
30049;DHT22;16879;50.852;15.602;2024-02-26T15:42:23;10.40;99.10
30049;DHT22;16879;50.852;15.602;2024-02-26T15:47:21;10.20;96.60
30049;DHT22;16879;50.852;15.602;2024-02-26T15:49:47;10.30;2.40
30049;DHT22;16879;50.852;15.602;2024-02-26T15:54:39;10.10;1.00
30049;DHT22;16879;50.852;15.602;2024-02-26T15:59:35;10.20;1.00
30049;DHT22;16879;50.852;15.602;2024-02-26T16:02:01;10.10;1.00
30049;DHT22;16879;50.852;15.602;2024-02-26T16:04:28;10.20;1.00
30049;DHT22;16879;50.852;15.602;2024-02-26T16:17:30;9.60;1.00
30049;DHT22;16879;50.852;15.602;2024-02-26T16:29:43;9.20;99.90
30049;DHT22;16879;50.852;15.602;2024-02-26T16:39:39;9.20;1.00
30049;DHT22;16879;50.852;15.602;2024-02-26T16:47:05;9.10;1.00
30049;DHT22;16879;50.852;15.602;2024-02-26T16:49:35;9.00;1.00
30049;DHT22;16879;50.852;15.602;2024-02-26T16:59:23;9.00;16.30
30049;DHT22;16879;50.852;15.602;2024-02-26T17:01:53;8.90;61.40
30049;DHT22;16879;50.852;15.602;2024-02-26T17:04:19;8.90;99.90
30049;DHT22;16879;50.852;15.602;2024-02-26T17:09:11;8.90;99.90
30049;DHT22;16879;50.852;15.602;2024-02-26T17:11:37;9.00;99.90
30049;DHT22;16879;50.852;15.602;2024-02-26T17:14:07;8.50;1.00
30049;DHT22;16879;50.852;15.602;2024-02-26T17:19:01;7.80;99.90
30049;DHT22;16879;50.852;15.602;2024-02-26T17:23:53;8.80;99.90
30049;DHT22;16879;50.852;15.602;2024-02-26T17:33:41;9.00;99.90
30049;DHT22;16879;50.852;15.602;2024-02-26T17:36:07;8.50;99.90
30049;DHT22;16879;50.852;15.602;2024-02-26T17:41:03;8.20;26.50
30049;DHT22;16879;50.852;15.602;2024-02-26T17:43:31;8.20;99.90
30049;DHT22;16879;50.852;15.602;2024-02-26T17:48:23;7.80;99.90
30049;DHT22;16879;50.852;15.602;2024-02-26T17:50:49;8.00;1.00
30049;DHT22;16879;50.852;15.602;2024-02-26T18:08:29;8.50;5.80
30049;DHT22;16879;50.852;15.602;2024-02-26T18:10:55;7.70;99.90
30049;DHT22;16879;50.852;15.602;2024-02-26T18:23:07;7.80;1.00
30049;DHT22;16879;50.852;15.602;2024-02-26T18:32:53;8.30;1.00
30049;DHT22;16879;50.852;15.602;2024-02-26T18:35:19;7.50;99.90
30049;DHT22;16879;50.852;15.602;2024-02-26T18:37:46;8.10;99.90
30049;DHT22;16879;50.852;15.602;2024-02-26T18:45:06;7.60;99.90
30049;DHT22;16879;50.852;15.602;2024-02-26T19:07:10;7.10;99.90
30049;DHT22;16879;50.852;15.602;2024-02-26T19:09:40;7.20;1.00
30049;DHT22;16879;50.852;15.602;2024-02-26T19:12:07;7.10;1.00
30049;DHT22;16879;50.852;15.602;2024-02-26T19:17:01;8.10;1.00
30049;DHT22;16879;50.852;15.602;2024-02-26T19:29:18;7.30;99.90
30049;DHT22;16879;50.852;15.602;2024-02-26T19:34:12;6.70;99.90
30049;DHT22;16879;50.852;15.602;2024-02-26T19:53:53;6.50;75.00
30049;DHT22;16879;50.852;15.602;2024-02-26T19:58:47;6.60;1.00
30049;DHT22;16879;50.852;15.602;2024-02-26T20:08:39;6.50;1.00
30049;DHT22;16879;50.852;15.602;2024-02-26T20:11:06;6.70;99.90
30049;DHT22;16879;50.852;15.602;2024-02-26T20:35:41;6.10;1.00
30049;DHT22;16879;50.852;15.602;2024-02-26T20:38:08;6.50;99.90
30049;DHT22;16879;50.852;15.602;2024-02-26T20:43:03;5.90;1.00
30049;DHT22;16879;50.852;15.602;2024-02-26T21:00:13;5.90;1.00
30049;DHT22;16879;50.852;15.602;2024-02-26T21:05:08;5.80;1.00
30049;DHT22;16879;50.852;15.602;2024-02-26T21:12:30;5.50;99.90
30049;DHT22;16879;50.852;15.602;2024-02-26T21:14:55;6.00;99.90
30049;DHT22;16879;50.852;15.602;2024-02-26T21:17:21;5.90;99.90
30049;DHT22;16879;50.852;15.602;2024-02-26T21:19:50;5.70;1.00
30049;DHT22;16879;50.852;15.602;2024-02-26T21:24:43;5.40;81.20
30049;DHT22;16879;50.852;15.602;2024-02-26T21:34:30;5.50;99.90
30049;DHT22;16879;50.852;15.602;2024-02-26T21:36:55;5.30;99.90
30049;DHT22;16879;50.852;15.602;2024-02-26T21:41:47;5.10;99.90
30049;DHT22;16879;50.852;15.602;2024-02-26T21:49:10;5.30;99.90
30049;DHT22;16879;50.852;15.602;2024-02-26T21:54:10;5.10;36.60
30049;DHT22;16879;50.852;15.602;2024-02-26T22:06:23;5.10;25.10
30049;DHT22;16879;50.852;15.602;2024-02-26T22:18:35;5.40;75.30
30049;DHT22;16879;50.852;15.602;2024-02-26T22:25:53;5.00;99.90
30049;DHT22;16879;50.852;15.602;2024-02-26T22:38:05;5.10;99.90
30049;DHT22;16879;50.852;15.602;2024-02-26T22:40:31;5.20;99.90
30049;DHT22;16879;50.852;15.602;2024-02-26T23:05:15;4.90;99.90
30049;DHT22;16879;50.852;15.602;2024-02-26T23:10:08;4.80;99.90
30049;DHT22;16879;50.852;15.602;2024-02-26T23:12:34;4.90;99.90
30049;DHT22;16879;50.852;15.602;2024-02-26T23:17:26;4.30;99.90
30049;DHT22;16879;50.852;15.602;2024-02-26T23:22:18;4.20;99.90
30049;DHT22;16879;50.852;15.602;2024-02-26T23:24:44;4.10;99.90
30049;DHT22;16879;50.852;15.602;2024-02-26T23:27:10;5.00;99.90
30049;DHT22;16879;50.852;15.602;2024-02-26T23:44:15;4.10;99.90
30049;DHT22;16879;50.852;15.602;2024-02-26T23:51:34;4.70;99.90
30049;DHT22;16879;50.852;15.602;2024-02-26T23:53:59;4.30;53.00
30049;DHT22;16879;50.852;15.602;2024-02-26T23:56:25;3.90;99.90
